Hillandale, Maryland
Current Conditions -  °F | °C
As of 6:00 PM on Saturday 25 Oct 2014 (Local Time) from KCGS Reporting Station
Clear Clear  
Wind Chill: 68°   Ceiling: Unl
Heat Index: 68°   Visibility: 10mi
Dew Point: 37°   Wind: 6mph
Humidity: 33%   Direction: 180°S
Pressure: 29.74"   Gusts: NA
Location:  39.0169°N, 76.9848°W
Report Text: KCGS 252200Z AUTO 18005KT 10SM CLR 20/03 A2974 RMK AO1
Loading
Personal Weather Stations






























Interactive Weather Map New forecast layout! Learn more

10-Day Weather Forecast

Advertisements
Track Severe Weather on mobile